»·PEaware :: N542T KUDD-KVNY

N542T :: KUDD-KVNY

FLIGHT INFORMATION

Flight Status: Arrived
Operator: Privately registered:
United States
More flights under this callsign
Pilot: Erik H. (34311)
Aircraft: BEECH AIRCRAFT BONANZA
(BE36)
More flights by this aircraft type
Origin: KUDD Bermuda Dunes
United States
Destination: KVNY Van Nuys
United States
More flights between these airports :: More routes between these airports
Route: V388 PDZ V186 VNY
File this flight plan on PilotEdge
Remarks:
Altitude:
(Current/Filed)
10,000ft
Speed:
(Current/Filed)
160kts
Departed: 24-Jan-23 05:48 PM
Arrived: 24-Jan-23 07:01 PM
Distance/Time
Traveled:
114nm/1:13
Distance/Time
To Go:
Arrived

Flight Plot

Page will automatically refresh every two minutes.


Map Options




Map Legend


Flown Route
Filed Route
Departure Airport
Arrival Airport
Navaid (VOR, NDB)
Fix

Horizontal Profiles

Position Reports

Time Latitude Longitude Heading Altitude Ground
Speed
24-Jan-23 17:36 33.746003 -116.270815 270 55ft 0kts
24-Jan-23 17:36 33.746003 -116.270815 270 55ft 0kts
24-Jan-23 17:37 33.746003 -116.270815 270 55ft 0kts
24-Jan-23 17:38 33.746003 -116.270815 270 55ft 0kts
24-Jan-23 17:39 33.746003 -116.270815 270 55ft 0kts
24-Jan-23 17:40 33.746003 -116.270815 270 55ft 0kts
24-Jan-23 17:41 33.746003 -116.270815 270 55ft 0kts
24-Jan-23 17:42 33.746003 -116.270815 270 55ft 0kts
24-Jan-23 17:43 33.746263 -116.270726 106 55ft 10kts
24-Jan-23 17:44 33.745139 -116.267725 31 54ft 1kts
24-Jan-23 17:45 33.745141 -116.267724 27 54ft 0kts
24-Jan-23 17:46 33.745525 -116.267589 317 54ft 8kts
24-Jan-23 17:47 33.752835 -116.285289 291 505ft 111kts
24-Jan-23 17:48 33.770091 -116.320080 253 1747ft 132kts
24-Jan-23 17:49 33.746868 -116.309175 102 3041ft 145kts
24-Jan-23 17:50 33.726240 -116.267756 128 4222ft 149kts
24-Jan-23 17:51 33.697614 -116.234916 148 5400ft 142kts
24-Jan-23 17:52 33.667609 -116.204064 144 6604ft 141kts
24-Jan-23 17:53 33.637033 -116.172554 141 7768ft 154kts
24-Jan-23 17:54 33.616672 -116.124979 104 9011ft 173kts
24-Jan-23 17:55 33.602739 -116.076671 175 10106ft 142kts
24-Jan-23 17:56 33.589464 -116.117295 290 10028ft 151kts
24-Jan-23 17:57 33.617708 -116.150284 312 10057ft 151kts
24-Jan-23 17:58 33.654289 -116.189553 308 10066ft 194kts
24-Jan-23 17:59 33.694023 -116.233823 314 10060ft 182kts
24-Jan-23 18:00 33.729721 -116.272917 309 10052ft 171kts
24-Jan-23 18:01 33.767505 -116.315474 309 10066ft 199kts
24-Jan-23 18:02 33.808943 -116.361653 309 10065ft 205kts
24-Jan-23 18:03 33.849703 -116.407345 314 10063ft 187kts
24-Jan-23 18:04 33.877441 -116.458415 286 10070ft 202kts
24-Jan-23 18:05 33.893969 -116.524230 281 10072ft 207kts
24-Jan-23 18:06 33.910893 -116.591852 292 10079ft 210kts
24-Jan-23 18:07 33.927473 -116.655990 290 10067ft 202kts
24-Jan-23 18:08 33.944282 -116.723017 287 10065ft 213kts
24-Jan-23 18:09 33.946676 -116.793828 266 10063ft 213kts
24-Jan-23 18:10 33.943936 -116.864063 271 10067ft 205kts
24-Jan-23 18:11 33.941595 -116.930551 272 10071ft 197kts
24-Jan-23 18:12 33.939183 -116.996418 272 10071ft 197kts
24-Jan-23 18:13 33.936715 -117.062150 271 10072ft 197kts
24-Jan-23 18:14 33.934232 -117.128867 270 10077ft 202kts
24-Jan-23 18:15 33.931584 -117.197021 267 10078ft 206kts
24-Jan-23 18:16 33.928882 -117.266446 266 10097ft 208kts
24-Jan-23 18:17 33.926083 -117.336292 264 10101ft 208kts
24-Jan-23 18:18 33.923313 -117.405677 263 10092ft 206kts
24-Jan-23 18:19 33.920516 -117.473722 261 10097ft 199kts
24-Jan-23 18:20 33.921006 -117.538870 284 10082ft 197kts
24-Jan-23 18:21 33.940633 -117.599248 286 10091ft 191kts
24-Jan-23 18:22 33.959774 -117.658067 287 9529ft 182kts
24-Jan-23 18:23 33.977555 -117.713134 291 8246ft 172kts
24-Jan-23 18:24 33.995025 -117.767021 293 6938ft 174kts
24-Jan-23 18:25 34.012404 -117.820733 292 6036ft 159kts
24-Jan-23 18:26 34.027452 -117.867664 292 6044ft 145kts
24-Jan-23 18:27 34.041937 -117.912770 293 6044ft 143kts
24-Jan-23 18:28 34.056301 -117.957338 293 6042ft 141kts
24-Jan-23 18:29 34.070226 -118.000740 293 6042ft 137kts
24-Jan-23 18:30 34.084013 -118.043775 293 6043ft 137kts
24-Jan-23 18:31 34.097786 -118.086841 292 6042ft 138kts
24-Jan-23 18:32 34.111643 -118.130241 292 6045ft 139kts
24-Jan-23 18:33 34.125616 -118.174090 292 6043ft 140kts
24-Jan-23 18:34 34.139703 -118.218336 292 6042ft 142kts
24-Jan-23 18:35 34.153911 -118.263024 291 6041ft 143kts
24-Jan-23 18:36 34.167679 -118.308090 291 6042ft 142kts
24-Jan-23 18:37 34.181240 -118.352513 290 6039ft 141kts
24-Jan-23 18:38 34.194073 -118.397178 287 6040ft 140kts
24-Jan-23 18:39 34.207640 -118.441179 287 6042ft 139kts
24-Jan-23 18:40 34.221240 -118.484768 287 6041ft 138kts
24-Jan-23 18:41 34.248770 -118.515137 329 6040ft 140kts
24-Jan-23 18:42 34.282671 -118.536640 329 5801ft 123kts
24-Jan-23 18:43 34.311134 -118.554260 328 5034ft 102kts
24-Jan-23 18:44 34.337303 -118.570408 344 5034ft 109kts
24-Jan-23 18:45 34.367343 -118.574990 349 5046ft 108kts
24-Jan-23 18:46 34.397441 -118.579143 348 5046ft 108kts
24-Jan-23 18:47 34.427495 -118.583503 350 5048ft 108kts
24-Jan-23 18:48 34.457490 -118.587313 8 5034ft 110kts
24-Jan-23 18:49 34.468457 -118.555685 82 5051ft 108kts
24-Jan-23 18:50 34.456817 -118.527104 148 5041ft 101kts
24-Jan-23 18:51 34.432518 -118.513266 197 5035ft 100kts
24-Jan-23 18:52 34.405284 -118.509868 169 5047ft 100kts
24-Jan-23 18:53 34.377431 -118.506065 173 5050ft 100kts
24-Jan-23 18:54 34.349040 -118.503276 176 4375ft 104kts
24-Jan-23 18:55 34.320760 -118.500613 176 3471ft 101kts
24-Jan-23 18:56 34.293854 -118.498138 176 2723ft 95kts
24-Jan-23 18:57 34.267745 -118.495692 175 2096ft 88kts
24-Jan-23 18:58 34.243433 -118.493429 175 1491ft 86kts
24-Jan-23 18:59 34.220234 -118.491436 175 974ft 80kts
24-Jan-23 19:00 34.210138 -118.491369 266 777ft 0kts
24-Jan-23 19:01 34.207450 -118.491319 179 772ft 12kts
24-Jan-23 19:02 34.206007 -118.493530 268 770ft 0kts

Navigation Log

Ident Type
Flight plan parsing failed, navigation log unavailable